createdAt,value
2023-05-18T00:02:26.477Z,43.96
2023-05-18T00:04:53.166Z,43.98
2023-05-18T00:07:19.640Z,44.11
2023-05-18T00:09:46.054Z,44.03
2023-05-18T00:12:12.451Z,44.09
2023-05-18T00:14:38.833Z,44.05
2023-05-18T00:17:05.281Z,44.06
2023-05-18T00:19:31.681Z,43.94
2023-05-18T00:21:58.079Z,44.14
2023-05-18T00:24:24.480Z,43.97
2023-05-18T00:26:50.864Z,43.95
2023-05-18T00:29:17.294Z,43.96
2023-05-18T00:31:45.405Z,44.16
2023-05-18T00:34:12.764Z,44.19
2023-05-18T00:36:39.322Z,44.18
2023-05-18T00:39:06.323Z,43.90
2023-05-18T00:41:32.707Z,44.13
2023-05-18T00:43:59.629Z,44.29
2023-05-18T00:46:26.668Z,44.32
2023-05-18T00:48:53.439Z,44.00
2023-05-18T00:51:20.049Z,43.98
2023-05-18T00:53:46.686Z,44.28
2023-05-18T00:56:13.172Z,44.21
2023-05-18T00:58:39.572Z,44.02
2023-05-18T01:01:06.188Z,43.89
2023-05-18T01:03:33.421Z,44.04
2023-05-18T01:05:59.825Z,44.20
2023-05-18T01:08:27.146Z,43.95
2023-05-18T01:10:57.258Z,44.10
2023-05-18T01:13:24.598Z,44.25
2023-05-18T01:15:52.838Z,44.19
2023-05-18T01:18:32.970Z,44.08
2023-05-18T01:20:59.848Z,44.20
2023-05-18T01:23:45.053Z,44.25
2023-05-18T01:26:13.006Z,44.14
2023-05-18T01:28:39.442Z,44.19
2023-05-18T01:31:05.904Z,44.10
2023-05-18T01:33:32.455Z,44.08
2023-05-18T01:35:58.834Z,44.30
2023-05-18T01:38:26.258Z,44.03
2023-05-18T01:40:52.597Z,44.06
2023-05-18T01:43:19.038Z,44.06
2023-05-18T01:45:45.925Z,44.34
2023-05-18T01:48:12.327Z,44.18
2023-05-18T01:50:40.028Z,44.22
2023-05-18T01:53:06.868Z,44.12
2023-05-18T01:55:33.558Z,44.24
2023-05-18T01:57:59.968Z,44.12
2023-05-18T02:00:26.439Z,44.37
2023-05-18T02:02:53.114Z,44.34
2023-05-18T02:05:19.587Z,44.28
2023-05-18T02:07:47.463Z,44.18
2023-05-18T02:10:14.444Z,44.21
2023-05-18T02:12:41.010Z,44.08
2023-05-18T02:15:08.996Z,44.39
2023-05-18T02:17:38.965Z,44.34
2023-05-18T02:20:09.232Z,44.32
2023-05-18T02:22:36.075Z,44.11
2023-05-18T02:25:02.709Z,44.26
2023-05-18T02:27:29.939Z,44.25
2023-05-18T02:29:56.780Z,44.17
2023-05-18T02:32:23.592Z,44.10
2023-05-18T02:34:52.734Z,44.41
2023-05-18T02:37:19.500Z,44.25
2023-05-18T02:39:45.894Z,44.46
2023-05-18T02:42:13.726Z,44.18
2023-05-18T02:44:40.112Z,44.42
2023-05-18T02:47:06.653Z,44.24
2023-05-18T02:49:33.508Z,44.28
2023-05-18T02:51:59.922Z,44.42
2023-05-18T02:54:26.596Z,44.34
2023-05-18T02:56:56.871Z,44.25
2023-05-18T02:59:39.452Z,44.44
2023-05-18T03:02:05.977Z,44.60
2023-05-18T03:04:32.720Z,44.39
2023-05-18T03:07:02.660Z,44.30
2023-05-18T03:09:29.404Z,44.35
2023-05-18T03:11:56.073Z,44.29
2023-05-18T03:14:22.632Z,44.27
2023-05-18T03:16:53.644Z,44.56
2023-05-18T03:19:21.130Z,44.34
2023-05-18T03:21:49.387Z,44.48
2023-05-18T03:24:16.211Z,44.24
2023-05-18T03:26:46.411Z,44.41
2023-05-18T03:29:13.540Z,44.40
2023-05-18T03:31:41.032Z,44.35
2023-05-18T03:34:08.019Z,44.52
2023-05-18T03:36:35.669Z,44.34
2023-05-18T03:39:02.263Z,44.31
2023-05-18T03:41:29.873Z,44.41
2023-05-18T03:43:56.349Z,44.36
2023-05-18T03:46:23.170Z,44.38
2023-05-18T03:48:49.586Z,44.36
2023-05-18T03:51:20.746Z,44.33
2023-05-18T03:53:47.754Z,44.33
2023-05-18T03:56:14.168Z,44.39
2023-05-18T03:58:42.323Z,44.37
2023-05-18T04:01:09.383Z,44.53
2023-05-18T04:03:35.828Z,44.48
2023-05-18T04:06:02.300Z,44.57
2023-05-18T04:08:30.502Z,44.54
2023-05-18T04:10:58.312Z,44.62
2023-05-18T04:13:24.784Z,44.46
2023-05-18T04:15:51.707Z,44.55
2023-05-18T04:18:18.133Z,44.59
2023-05-18T04:20:45.997Z,44.70
2023-05-18T04:23:12.398Z,44.53
2023-05-18T04:25:39.389Z,44.44
2023-05-18T04:28:06.479Z,44.41
2023-05-18T04:30:33.263Z,44.62
2023-05-18T04:33:00.299Z,44.47
2023-05-18T04:35:27.709Z,44.46
2023-05-18T04:37:55.430Z,44.53
2023-05-18T04:40:22.469Z,44.61
2023-05-18T04:42:49.462Z,44.57
2023-05-18T04:45:26.898Z,44.63
2023-05-18T04:47:55.806Z,44.52
2023-05-18T04:50:25.326Z,44.61
2023-05-18T04:52:51.813Z,44.69
2023-05-18T04:55:27.693Z,44.54
2023-05-18T04:57:57.311Z,44.78
2023-05-18T05:00:24.780Z,44.62
2023-05-18T05:02:51.437Z,44.62
2023-05-18T05:05:18.847Z,44.60
2023-05-18T05:07:45.462Z,44.58
2023-05-18T05:10:12.022Z,44.53
2023-05-18T05:12:38.998Z,44.42
2023-05-18T05:15:05.551Z,44.63
2023-05-18T05:17:32.172Z,44.58
2023-05-18T05:19:58.561Z,44.48
2023-05-18T05:22:25.041Z,44.53
2023-05-18T05:24:52.141Z,44.81
2023-05-18T05:27:19.912Z,44.69
2023-05-18T05:29:46.720Z,44.65
2023-05-18T05:32:13.190Z,44.88
2023-05-18T05:34:43.820Z,44.74
2023-05-18T05:37:10.208Z,44.73
2023-05-18T05:39:36.693Z,44.76
2023-05-18T05:42:03.272Z,44.85
2023-05-18T05:44:30.022Z,44.79
2023-05-18T05:46:56.475Z,44.76
2023-05-18T05:49:23.144Z,44.70
2023-05-18T05:51:49.538Z,44.61
2023-05-18T05:54:16.539Z,44.88
2023-05-18T05:56:43.731Z,44.59
2023-05-18T05:59:10.668Z,44.70
2023-05-18T06:01:37.155Z,44.71
2023-05-18T06:04:06.314Z,44.67
2023-05-18T06:06:32.702Z,44.85
2023-05-18T06:08:59.152Z,44.73
2023-05-18T06:11:25.603Z,44.97
2023-05-18T06:13:52.436Z,44.71
2023-05-18T06:16:18.850Z,44.90
2023-05-18T06:18:45.325Z,44.79
2023-05-18T06:21:11.776Z,44.78
2023-05-18T06:23:41.015Z,44.90
2023-05-18T06:26:22.066Z,44.86
2023-05-18T06:29:08.864Z,44.81
2023-05-18T06:31:53.627Z,44.92
2023-05-18T06:34:23.760Z,44.76
2023-05-18T06:36:50.816Z,44.93
2023-05-18T06:39:17.413Z,44.94
2023-05-18T06:41:45.631Z,44.98
2023-05-18T06:44:19.348Z,44.91
2023-05-18T06:47:17.906Z,44.95
2023-05-18T06:49:44.355Z,44.99
2023-05-18T06:52:11.435Z,44.98
2023-05-18T06:54:38.374Z,45.08
2023-05-18T06:57:05.080Z,44.86
2023-05-18T06:59:31.453Z,44.99
2023-05-18T07:01:58.545Z,45.21
2023-05-18T07:04:25.791Z,45.11
2023-05-18T07:06:53.614Z,45.05
2023-05-18T07:09:19.993Z,45.04
2023-05-18T07:11:46.401Z,44.99
2023-05-18T07:14:12.788Z,45.13
2023-05-18T07:16:39.599Z,45.10
2023-05-18T07:19:06.019Z,45.24
2023-05-18T07:21:32.861Z,45.40
2023-05-18T07:23:59.255Z,45.31
2023-05-18T07:26:26.093Z,45.43
2023-05-18T07:28:52.565Z,45.29
2023-05-18T07:31:21.226Z,45.62
2023-05-18T07:33:50.617Z,45.47
2023-05-18T07:36:17.200Z,45.64
2023-05-18T07:38:44.093Z,45.75
2023-05-18T07:41:10.479Z,45.71
2023-05-18T07:43:36.893Z,45.82
2023-05-18T07:46:03.268Z,45.75
2023-05-18T07:48:29.684Z,45.64
2023-05-18T07:50:56.062Z,45.96
2023-05-18T07:53:22.473Z,46.48
2023-05-18T07:55:49.938Z,46.63
2023-05-18T07:58:16.361Z,46.41
2023-05-18T08:00:44.299Z,45.21
2023-05-18T08:03:11.074Z,45.04
2023-05-18T08:05:37.564Z,41.42
2023-05-18T08:08:06.601Z,39.57
2023-05-18T08:10:33.485Z,39.25
2023-05-18T08:12:59.882Z,39.43
2023-05-18T08:15:26.253Z,38.15
2023-05-18T08:17:52.763Z,38.08
2023-05-18T08:20:19.237Z,38.01
2023-05-18T08:22:45.696Z,38.19
2023-05-18T08:25:12.086Z,38.11
2023-05-18T08:27:38.475Z,38.53
2023-05-18T08:30:04.969Z,38.91
2023-05-18T08:32:31.973Z,39.50
2023-05-18T08:34:58.551Z,39.40
2023-05-18T08:37:29.272Z,39.60
2023-05-18T08:39:55.800Z,39.97
2023-05-18T08:42:23.438Z,39.71
2023-05-18T08:45:09.451Z,39.88
2023-05-18T08:47:35.890Z,40.18
2023-05-18T08:50:02.581Z,40.20
2023-05-18T08:52:29.585Z,40.54
2023-05-18T08:54:56.428Z,40.55
2023-05-18T08:57:24.083Z,40.93
2023-05-18T08:59:50.663Z,41.34
2023-05-18T09:02:17.128Z,41.52
2023-05-18T09:04:44.917Z,41.52
2023-05-18T09:07:11.358Z,41.41
2023-05-18T09:09:38.336Z,41.34
2023-05-18T09:12:04.739Z,41.56
2023-05-18T09:14:31.797Z,41.42
2023-05-18T09:16:58.171Z,41.63
2023-05-18T09:19:25.012Z,41.69
2023-05-18T09:21:51.523Z,41.85
2023-05-18T09:24:19.327Z,40.78
2023-05-18T09:26:46.304Z,40.31
2023-05-18T09:29:19.148Z,40.36
2023-05-18T09:31:46.543Z,40.70
2023-05-18T09:34:13.279Z,40.55
2023-05-18T09:36:39.702Z,40.57
2023-05-18T09:39:12.314Z,41.12
2023-05-18T09:41:39.892Z,40.94
2023-05-18T09:44:09.427Z,41.08
2023-05-18T09:46:36.380Z,41.54
2023-05-18T09:49:03.533Z,41.93
2023-05-18T09:51:29.927Z,42.04
2023-05-18T09:53:56.746Z,42.00
2023-05-18T09:56:24.012Z,41.98
2023-05-18T09:58:50.420Z,41.87
2023-05-18T10:01:16.861Z,41.80
2023-05-18T10:03:45.575Z,41.72
2023-05-18T10:06:14.583Z,41.90
2023-05-18T10:08:40.991Z,41.85
2023-05-18T10:11:07.423Z,41.65
2023-05-18T10:13:34.007Z,41.93
2023-05-18T10:16:01.066Z,41.86
2023-05-18T10:18:27.988Z,42.17
2023-05-18T10:20:55.587Z,42.02
2023-05-18T10:23:23.042Z,42.15
2023-05-18T10:25:49.777Z,42.12
2023-05-18T10:28:18.393Z,42.44
2023-05-18T10:30:44.790Z,42.33
2023-05-18T10:33:20.631Z,42.45
2023-05-18T10:35:54.696Z,42.38
2023-05-18T10:38:21.780Z,42.47
2023-05-18T10:40:49.141Z,42.50
2023-05-18T10:43:17.507Z,42.50
2023-05-18T10:45:46.550Z,42.50
2023-05-18T10:48:12.978Z,42.53
2023-05-18T10:50:39.387Z,42.69
2023-05-18T10:53:05.886Z,42.81
2023-05-18T10:55:32.338Z,42.84
2023-05-18T10:58:01.278Z,42.56
2023-05-18T11:00:27.653Z,42.70
2023-05-18T11:02:54.196Z,42.64
2023-05-18T11:05:24.316Z,42.92
2023-05-18T11:07:50.946Z,42.88
2023-05-18T11:10:17.328Z,42.88
2023-05-18T11:12:43.700Z,42.97
2023-05-18T11:15:10.200Z,42.84
2023-05-18T11:17:36.731Z,42.84
2023-05-18T11:20:09.363Z,43.10
2023-05-18T11:22:42.406Z,42.98
2023-05-18T11:25:09.099Z,42.99
2023-05-18T11:27:35.506Z,42.99
2023-05-18T11:30:14.943Z,43.01
2023-05-18T11:32:49.690Z,43.01
2023-05-18T11:35:22.547Z,42.99
2023-05-18T11:37:49.402Z,43.05
2023-05-18T11:40:34.637Z,43.14
2023-05-18T11:43:01.058Z,43.12
2023-05-18T11:45:27.441Z,43.30
2023-05-18T11:47:56.263Z,43.41
2023-05-18T11:50:22.679Z,42.32
2023-05-18T11:52:50.592Z,42.97
2023-05-18T11:55:17.924Z,43.47
2023-05-18T11:57:45.480Z,43.58
2023-05-18T12:00:12.232Z,43.57
2023-05-18T12:02:45.700Z,43.41
2023-05-18T12:05:12.382Z,43.34
2023-05-18T12:07:38.960Z,42.01
2023-05-18T12:10:07.206Z,40.98
2023-05-18T12:12:33.998Z,39.87
2023-05-18T12:15:05.196Z,41.02
2023-05-18T12:17:41.300Z,41.32
2023-05-18T12:20:17.433Z,42.12
2023-05-18T12:22:44.452Z,42.47
2023-05-18T12:25:10.944Z,42.35
2023-05-18T12:27:40.761Z,42.10
2023-05-18T12:30:40.574Z,41.47
2023-05-18T12:33:07.342Z,41.71
2023-05-18T12:35:34.114Z,42.36
2023-05-18T12:38:01.481Z,42.41
2023-05-18T12:40:28.410Z,42.30
2023-05-18T12:42:55.212Z,42.27
2023-05-18T12:45:22.692Z,41.75
2023-05-18T12:47:54.271Z,36.99
2023-05-18T12:50:21.098Z,37.11
2023-05-18T12:52:48.015Z,37.12
2023-05-18T12:55:23.323Z,35.97
2023-05-18T12:58:12.771Z,36.18
2023-05-18T13:00:39.145Z,35.60
2023-05-18T13:03:25.785Z,36.22
2023-05-18T13:06:02.002Z,35.67
2023-05-18T13:08:28.444Z,34.58
2023-05-18T13:11:09.161Z,35.38
2023-05-18T13:13:39.806Z,36.24
2023-05-18T13:16:09.643Z,35.13
2023-05-18T13:18:36.101Z,35.77
2023-05-18T13:21:02.587Z,35.80
2023-05-18T13:23:29.558Z,36.50
2023-05-18T13:25:58.212Z,37.46
2023-05-18T13:28:25.309Z,37.32
2023-05-18T13:30:51.699Z,37.75
2023-05-18T13:33:19.077Z,37.64
2023-05-18T13:35:45.742Z,38.02
2023-05-18T13:38:13.214Z,38.00
2023-05-18T13:40:39.774Z,38.28
2023-05-18T13:43:06.208Z,38.65
2023-05-18T13:45:33.026Z,38.79
2023-05-18T13:47:59.733Z,39.14
2023-05-18T13:50:26.318Z,39.33
2023-05-18T13:52:52.905Z,39.40
2023-05-18T13:55:19.425Z,39.79
2023-05-18T13:57:46.616Z,39.90
2023-05-18T14:00:13.789Z,39.82
2023-05-18T14:02:40.800Z,40.24
2023-05-18T14:05:10.200Z,40.20
2023-05-18T14:07:36.745Z,40.25
2023-05-18T14:10:03.486Z,40.62
2023-05-18T14:12:29.865Z,40.60
2023-05-18T14:14:56.497Z,40.89
2023-05-18T14:17:22.898Z,41.12
2023-05-18T14:19:49.308Z,41.16
2023-05-18T14:22:16.497Z,41.20
2023-05-18T14:24:42.947Z,41.52
2023-05-18T14:27:09.330Z,41.65
2023-05-18T14:29:36.253Z,42.16
2023-05-18T14:32:02.675Z,42.04
2023-05-18T14:34:29.088Z,42.17
2023-05-18T14:36:55.473Z,42.50
2023-05-18T14:39:21.868Z,42.51
2023-05-18T14:41:48.241Z,42.73
2023-05-18T14:44:14.626Z,42.63
2023-05-18T14:46:41.306Z,42.72
2023-05-18T14:49:07.864Z,42.83
2023-05-18T14:51:34.283Z,43.10
2023-05-18T14:54:00.734Z,43.26
2023-05-18T14:56:27.295Z,43.45
2023-05-18T14:58:53.676Z,43.06
2023-05-18T15:01:20.129Z,43.43
2023-05-18T15:03:46.733Z,43.86
2023-05-18T15:06:13.369Z,44.02
2023-05-18T15:08:40.004Z,44.13
2023-05-18T15:11:06.397Z,44.07
2023-05-18T15:13:32.778Z,44.84
2023-05-18T15:15:59.206Z,44.65
2023-05-18T15:18:25.858Z,44.08
2023-05-18T15:20:52.365Z,43.83
2023-05-18T15:23:18.750Z,44.08
2023-05-18T15:25:45.128Z,43.84
2023-05-18T15:28:11.523Z,44.02
2023-05-18T15:30:38.219Z,44.44
2023-05-18T15:33:06.115Z,44.85
2023-05-18T15:35:34.765Z,42.88
2023-05-18T15:38:01.178Z,43.33
2023-05-18T15:40:27.570Z,42.78
2023-05-18T15:42:53.945Z,43.19
2023-05-18T15:45:20.335Z,43.22
2023-05-18T15:47:46.729Z,43.01
2023-05-18T15:50:16.121Z,42.66
2023-05-18T15:52:42.562Z,42.98
2023-05-18T15:55:09.136Z,43.04
2023-05-18T15:57:35.680Z,43.12
2023-05-18T16:00:02.205Z,43.20
2023-05-18T16:02:38.182Z,43.06
2023-05-18T16:05:04.780Z,43.30
2023-05-18T16:07:31.171Z,42.97
2023-05-18T16:09:57.549Z,43.23
2023-05-18T16:12:23.940Z,43.14
2023-05-18T16:14:51.727Z,43.06
2023-05-18T16:17:18.385Z,43.33
2023-05-18T16:19:44.794Z,43.06
2023-05-18T16:22:11.169Z,43.02
2023-05-18T16:24:37.652Z,42.98
2023-05-18T16:27:04.039Z,43.29
2023-05-18T16:29:30.419Z,43.00
2023-05-18T16:31:56.895Z,43.38
2023-05-18T16:34:23.374Z,43.19
2023-05-18T16:36:49.770Z,43.29
2023-05-18T16:39:16.242Z,43.32
2023-05-18T16:41:42.611Z,43.28
2023-05-18T16:44:08.989Z,42.63
2023-05-18T16:46:35.543Z,43.24
2023-05-18T16:49:01.950Z,43.27
2023-05-18T16:51:28.354Z,43.25
2023-05-18T16:53:55.482Z,43.31
2023-05-18T16:56:22.256Z,43.42
2023-05-18T16:58:52.260Z,43.64
2023-05-18T17:01:27.497Z,44.06
2023-05-18T17:03:55.421Z,45.77
2023-05-18T17:06:21.949Z,46.52
2023-05-18T17:08:50.538Z,45.60
2023-05-18T17:11:16.926Z,45.44
2023-05-18T17:13:44.382Z,45.76
2023-05-18T17:16:11.318Z,43.33
2023-05-18T17:18:37.816Z,41.97
2023-05-18T17:21:04.285Z,40.71
2023-05-18T17:23:30.698Z,39.86
2023-05-18T17:26:05.854Z,39.72
2023-05-18T17:28:32.900Z,37.61
2023-05-18T17:30:59.323Z,37.26
2023-05-18T17:33:25.721Z,37.02
2023-05-18T17:35:52.112Z,36.98
2023-05-18T17:38:18.523Z,37.15
2023-05-18T17:40:44.912Z,36.02
2023-05-18T17:43:11.300Z,36.28
2023-05-18T17:45:37.698Z,35.53
2023-05-18T17:48:04.295Z,35.44
2023-05-18T17:50:30.944Z,35.31
2023-05-18T17:52:57.592Z,35.95
2023-05-18T17:55:23.959Z,36.05
2023-05-18T17:57:51.024Z,35.78
2023-05-18T18:00:17.553Z,36.10
2023-05-18T18:02:44.081Z,36.18
2023-05-18T18:05:10.671Z,36.43
2023-05-18T18:07:37.111Z,36.69
2023-05-18T18:10:04.587Z,37.03
2023-05-18T18:12:31.281Z,37.31
2023-05-18T18:14:57.644Z,37.99
2023-05-18T18:17:24.162Z,38.08
2023-05-18T18:19:50.621Z,38.29
2023-05-18T18:22:17.004Z,38.40
2023-05-18T18:24:43.383Z,38.03
2023-05-18T18:27:09.774Z,38.63
2023-05-18T18:29:36.168Z,38.61
2023-05-18T18:32:02.577Z,38.93
2023-05-18T18:34:29.024Z,39.08
2023-05-18T18:36:55.421Z,39.01
2023-05-18T18:39:21.822Z,39.37
2023-05-18T18:41:48.209Z,39.39
2023-05-18T18:44:14.585Z,39.44
2023-05-18T18:46:41.023Z,39.77
2023-05-18T18:49:07.449Z,39.69
2023-05-18T18:51:33.832Z,39.58
2023-05-18T18:54:00.258Z,39.34
2023-05-18T18:56:27.414Z,39.69
2023-05-18T18:58:53.788Z,39.78
2023-05-18T19:01:20.316Z,39.88
2023-05-18T19:03:46.708Z,39.98
2023-05-18T19:06:14.671Z,40.04
2023-05-18T19:08:41.200Z,40.03
2023-05-18T19:11:07.590Z,40.39
2023-05-18T19:13:34.006Z,40.35
2023-05-18T19:16:00.425Z,40.69
2023-05-18T19:18:26.813Z,40.50
2023-05-18T19:20:53.179Z,40.77
2023-05-18T19:23:19.567Z,40.62
2023-05-18T19:25:46.058Z,40.94
2023-05-18T19:28:12.453Z,40.80
2023-05-18T19:30:38.859Z,41.03
2023-05-18T19:33:05.330Z,40.87
2023-05-18T19:35:31.937Z,40.98
2023-05-18T19:37:58.896Z,40.97
2023-05-18T19:40:27.218Z,41.06
2023-05-18T19:42:53.777Z,41.10
2023-05-18T19:45:20.297Z,41.29
2023-05-18T19:47:46.797Z,41.46
2023-05-18T19:50:13.234Z,41.44
2023-05-18T19:52:41.262Z,41.37
2023-05-18T19:55:07.659Z,41.44
2023-05-18T19:57:34.076Z,41.64
2023-05-18T20:00:01.048Z,41.72
2023-05-18T20:02:27.496Z,41.53
2023-05-18T20:04:53.978Z,41.67
2023-05-18T20:07:20.525Z,41.68
2023-05-18T20:09:47.001Z,41.86
2023-05-18T20:12:13.385Z,41.79
2023-05-18T20:14:39.790Z,41.78
2023-05-18T20:17:06.215Z,42.00
2023-05-18T20:19:32.645Z,42.16
2023-05-18T20:21:59.095Z,42.12
2023-05-18T20:24:25.547Z,41.92
2023-05-18T20:26:52.870Z,42.21
2023-05-18T20:29:19.266Z,42.08
2023-05-18T20:31:45.990Z,42.19
2023-05-18T20:34:12.488Z,42.19
2023-05-18T20:36:38.874Z,42.32
2023-05-18T20:39:05.372Z,42.41
2023-05-18T20:41:31.749Z,42.47
2023-05-18T20:44:01.973Z,42.49
2023-05-18T20:46:31.072Z,42.24
2023-05-18T20:48:57.763Z,42.31
2023-05-18T20:51:24.690Z,42.52
2023-05-18T20:53:51.220Z,42.33
2023-05-18T20:56:18.134Z,42.63
2023-05-18T20:58:48.630Z,42.56
2023-05-18T21:01:15.662Z,42.46
2023-05-18T21:03:45.880Z,42.37
2023-05-18T21:06:15.362Z,42.45
2023-05-18T21:08:42.401Z,42.70
2023-05-18T21:11:08.909Z,42.75
2023-05-18T21:13:36.876Z,42.79
2023-05-18T21:16:06.403Z,42.75
2023-05-18T21:18:34.213Z,42.66
2023-05-18T21:21:01.009Z,42.57
2023-05-18T21:23:27.409Z,42.90
2023-05-18T21:25:53.838Z,42.87
2023-05-18T21:28:20.229Z,42.91
2023-05-18T21:30:46.666Z,42.94
2023-05-18T21:33:13.152Z,42.81
2023-05-18T21:35:39.634Z,42.95
2023-05-18T21:38:06.136Z,42.97
2023-05-18T21:40:32.746Z,42.91
2023-05-18T21:42:59.338Z,42.99
2023-05-18T21:45:26.202Z,42.89
2023-05-18T21:47:52.719Z,43.05
2023-05-18T21:50:19.199Z,43.14
2023-05-18T21:52:45.622Z,43.02
2023-05-18T21:55:12.008Z,43.05
2023-05-18T21:57:38.400Z,43.03
2023-05-18T22:00:06.335Z,43.33
2023-05-18T22:02:39.032Z,43.27
2023-05-18T22:05:05.599Z,43.20
2023-05-18T22:07:32.007Z,43.23
2023-05-18T22:09:58.400Z,43.27
2023-05-18T22:12:24.809Z,43.37
2023-05-18T22:14:51.201Z,43.27
2023-05-18T22:17:17.986Z,43.10
2023-05-18T22:19:45.552Z,43.30
2023-05-18T22:22:19.430Z,43.25
2023-05-18T22:24:55.418Z,43.04
2023-05-18T22:27:21.909Z,43.36
2023-05-18T22:29:48.304Z,43.22
2023-05-18T22:32:15.688Z,43.39
2023-05-18T22:34:42.095Z,43.42
2023-05-18T22:37:08.483Z,43.60
2023-05-18T22:39:34.891Z,43.06
2023-05-18T22:42:01.293Z,43.45
2023-05-18T22:44:27.667Z,43.06
2023-05-18T22:46:54.103Z,43.44
2023-05-18T22:49:21.097Z,43.32
2023-05-18T22:51:47.514Z,43.48
2023-05-18T22:54:13.936Z,43.46
2023-05-18T22:56:40.350Z,43.41
2023-05-18T22:59:10.117Z,43.49
2023-05-18T23:01:37.712Z,43.33
2023-05-18T23:04:04.229Z,43.53
2023-05-18T23:06:31.671Z,43.53
2023-05-18T23:09:00.420Z,43.53
2023-05-18T23:11:28.447Z,43.33
2023-05-18T23:13:55.025Z,43.47
2023-05-18T23:16:22.669Z,43.61
2023-05-18T23:18:50.525Z,43.55
2023-05-18T23:21:17.073Z,43.62
2023-05-18T23:23:45.558Z,43.57
2023-05-18T23:26:12.573Z,43.54
2023-05-18T23:28:38.993Z,43.41
2023-05-18T23:31:05.400Z,43.62
2023-05-18T23:33:31.868Z,43.52
2023-05-18T23:35:59.244Z,43.96
2023-05-18T23:38:28.706Z,43.88
2023-05-18T23:40:55.147Z,43.82
2023-05-18T23:43:21.567Z,43.85
2023-05-18T23:45:47.993Z,43.99
2023-05-18T23:48:14.436Z,43.89
2023-05-18T23:50:40.949Z,43.93
2023-05-18T23:53:07.338Z,43.99
2023-05-18T23:55:33.730Z,44.01
2023-05-18T23:58:00.167Z,43.84
